Buhta Providenja, Russia
Current Conditions -  °F | °C
As of 7:00 AM on Wednesday 28 Jan 2015 (Local Time) from UHMA Reporting Station
Clear Clear  
Wind Chill: -51°   Ceiling: Unl
Heat Index: -26°   Visibility: 6mi
Dew Point: -31°   Wind: 13mph
Humidity: 76%   Direction: 10°N
Pressure: 30.42"   Gusts: NA
Location:  64.42°N, 173.23°E
Report Text: UHMA 271900Z 01006MPS 9999 SKC M32/M35 Q1030 NOSIG RMKQFE769/1025
Loading
Personal Weather Stations






























Interactive Weather Map New forecast layout! Learn more

10-Day Weather Forecast

Advertisements
Track Severe Weather on mobile